createdAt,value
2018-07-27T00:00:10.564Z,48.93
2018-07-27T00:01:10.553Z,49.61
2018-07-27T00:03:07.021Z,49.61
2018-07-27T00:04:06.518Z,50.38
2018-07-27T00:06:02.494Z,50.48
2018-07-27T00:07:02.493Z,51.35
2018-07-27T00:08:59.475Z,50.87
2018-07-27T00:09:58.452Z,51.53
2018-07-27T00:11:54.917Z,50.94
2018-07-27T00:12:53.919Z,51.14
2018-07-27T00:14:48.919Z,52.40
2018-07-27T00:15:49.891Z,52.28
2018-07-27T00:17:44.860Z,52.37
2018-07-27T00:18:45.373Z,52.95
2018-07-27T00:20:40.853Z,53.05
2018-07-27T00:21:40.854Z,53.34
2018-07-27T00:23:36.811Z,53.44
2018-07-27T00:24:36.844Z,53.53
2018-07-27T00:26:31.293Z,54.02
2018-07-27T00:27:32.296Z,54.96
2018-07-27T00:29:26.262Z,54.86
2018-07-27T00:30:25.772Z,54.77
2018-07-27T00:32:21.239Z,55.16
2018-07-27T00:33:22.243Z,55.16
2018-07-27T00:35:16.228Z,54.84
2018-07-27T00:36:15.190Z,54.45
2018-07-27T00:38:11.188Z,54.84
2018-07-27T00:39:11.180Z,54.64
2018-07-27T00:41:07.153Z,54.64
2018-07-27T00:42:08.158Z,55.13
2018-07-27T00:44:03.634Z,55.13
2018-07-27T00:45:03.126Z,55.71
2018-07-27T00:46:59.107Z,55.04
2018-07-27T00:47:59.089Z,55.42
2018-07-27T00:49:53.544Z,55.32
2018-07-27T00:50:53.546Z,55.32
2018-07-27T00:52:48.019Z,54.62
2018-07-27T00:53:48.019Z,54.33
2018-07-27T00:55:41.986Z,54.94
2018-07-27T00:56:41.454Z,54.74
2018-07-27T00:58:39.441Z,54.26
2018-07-27T00:59:40.420Z,54.16
2018-07-27T01:01:35.903Z,53.58
2018-07-27T01:02:35.404Z,53.77
2018-07-27T01:04:30.393Z,53.09
2018-07-27T01:05:29.872Z,52.61
2018-07-27T01:07:24.836Z,53.29
2018-07-27T01:08:25.341Z,52.90
2018-07-27T01:10:19.308Z,52.22
2018-07-27T01:11:19.317Z,52.51
2018-07-27T01:13:17.772Z,52.32
2018-07-27T01:14:16.932Z,52.12
2018-07-27T01:16:11.405Z,52.03
2018-07-27T01:17:10.379Z,51.93
2018-07-27T01:19:06.868Z,51.84
2018-07-27T01:20:07.353Z,52.90
2018-07-27T01:22:00.846Z,53.19
2018-07-27T01:23:00.843Z,52.80
2018-07-27T01:24:55.269Z,52.71
2018-07-27T01:25:55.278Z,53.49
2018-07-27T01:27:51.741Z,54.94
2018-07-27T01:28:51.250Z,54.35
2018-07-27T01:30:44.721Z,54.52
2018-07-27T01:31:44.707Z,54.81
2018-07-27T01:33:39.185Z,54.91
2018-07-27T01:34:39.163Z,55.30
2018-07-27T01:36:33.637Z,55.49
2018-07-27T01:37:34.636Z,55.78
2018-07-27T01:39:28.091Z,54.21
2018-07-27T01:40:28.088Z,54.98
2018-07-27T01:42:24.059Z,55.58
2018-07-27T01:43:22.562Z,55.66
2018-07-27T01:45:16.998Z,55.66
2018-07-27T01:46:17.005Z,55.36
2018-07-27T01:48:12.941Z,55.46
2018-07-27T01:49:12.958Z,55.46
2018-07-27T01:51:08.464Z,55.46
2018-07-27T01:52:07.432Z,55.46
2018-07-27T01:54:00.911Z,55.27
2018-07-27T01:55:00.891Z,55.34
2018-07-27T01:56:55.377Z,55.07
2018-07-27T01:57:55.370Z,55.07
2018-07-27T01:59:51.323Z,54.69
2018-07-27T02:00:51.340Z,54.69
2018-07-27T02:02:45.816Z,54.85
2018-07-27T02:03:45.795Z,54.47
2018-07-27T02:05:41.776Z,54.59
2018-07-27T02:06:41.727Z,54.75
2018-07-27T02:08:37.194Z,54.75
2018-07-27T02:09:36.203Z,55.24
2018-07-27T02:11:30.666Z,53.99
2018-07-27T02:12:31.172Z,53.02
2018-07-27T02:14:25.150Z,52.17
2018-07-27T02:15:25.145Z,52.36
2018-07-27T02:17:21.118Z,52.36
2018-07-27T02:18:21.090Z,51.78
2018-07-27T02:20:17.026Z,51.01
2018-07-27T02:21:17.045Z,52.08
2018-07-27T02:23:11.504Z,52.08
2018-07-27T02:24:11.525Z,51.98
2018-07-27T02:26:06.465Z,50.92
2018-07-27T02:27:05.965Z,50.82
2018-07-27T02:29:00.947Z,51.30
2018-07-27T02:30:00.446Z,51.20
2018-07-27T02:31:55.426Z,50.72
2018-07-27T02:32:54.909Z,51.01
2018-07-27T02:34:50.899Z,51.30
2018-07-27T02:35:51.376Z,51.20
2018-07-27T02:37:44.319Z,50.62
2018-07-27T02:38:44.826Z,51.40
2018-07-27T02:40:40.288Z,50.72
2018-07-27T02:41:40.279Z,51.20
2018-07-27T02:43:36.736Z,51.01
2018-07-27T02:44:36.223Z,51.30
2018-07-27T02:46:30.695Z,51.78
2018-07-27T02:47:31.196Z,51.88
2018-07-27T02:49:25.160Z,52.66
2018-07-27T02:50:25.161Z,52.75
2018-07-27T02:52:19.638Z,53.04
2018-07-27T02:53:19.648Z,52.92
2018-07-27T02:55:15.612Z,53.50
2018-07-27T02:56:15.555Z,53.99
2018-07-27T02:58:10.022Z,53.99
2018-07-27T02:59:10.027Z,53.69
2018-07-27T03:01:04.502Z,54.37
2018-07-27T03:02:04.491Z,54.37
2018-07-27T03:03:58.456Z,54.47
2018-07-27T03:04:57.958Z,54.73
2018-07-27T03:06:52.378Z,54.73
2018-07-27T03:07:52.406Z,54.93
2018-07-27T03:09:46.970Z,54.66
2018-07-27T03:10:47.367Z,54.63
2018-07-27T03:12:40.326Z,54.93
2018-07-27T03:13:40.847Z,55.60
2018-07-27T03:15:34.288Z,54.93
2018-07-27T03:16:34.299Z,55.02
2018-07-27T03:18:29.739Z,55.21
2018-07-27T03:19:29.736Z,55.70
2018-07-27T03:21:24.206Z,54.83
2018-07-27T03:22:24.204Z,54.83
2018-07-27T03:24:19.670Z,54.83
2018-07-27T03:25:18.676Z,54.53
2018-07-27T03:27:13.151Z,54.63
2018-07-27T03:28:13.645Z,53.96
2018-07-27T03:30:08.604Z,52.99
2018-07-27T03:31:07.586Z,52.22
2018-07-27T03:33:02.556Z,51.73
2018-07-27T03:34:02.576Z,52.12
2018-07-27T03:35:59.025Z,52.02
2018-07-27T03:36:58.039Z,52.02
2018-07-27T03:38:54.994Z,51.83
2018-07-27T03:39:53.999Z,51.73
2018-07-27T03:41:49.966Z,52.14
2018-07-27T03:42:49.957Z,51.76
2018-07-27T03:44:45.432Z,51.47
2018-07-27T03:45:44.431Z,51.56
2018-07-27T03:47:40.418Z,51.47
2018-07-27T03:48:40.402Z,51.47
2018-07-27T03:50:34.875Z,51.37
2018-07-27T03:51:34.874Z,51.08
2018-07-27T03:53:30.808Z,51.18
2018-07-27T03:54:30.820Z,50.79
2018-07-27T03:56:27.296Z,50.98
2018-07-27T03:57:25.301Z,50.98
2018-07-27T03:59:22.276Z,51.08
2018-07-27T04:00:21.264Z,50.98
2018-07-27T04:02:15.284Z,50.89
2018-07-27T04:03:14.717Z,50.79
2018-07-27T04:05:09.205Z,50.79
2018-07-27T04:06:08.163Z,50.86
2018-07-27T04:08:04.622Z,51.28
2018-07-27T04:09:04.133Z,51.18
2018-07-27T04:10:58.612Z,51.18
2018-07-27T04:11:58.599Z,51.18
2018-07-27T04:13:54.555Z,51.37
2018-07-27T04:14:54.554Z,51.28
2018-07-27T04:16:51.036Z,51.18
2018-07-27T04:17:50.528Z,50.60
2018-07-27T04:19:47.471Z,50.79
2018-07-27T04:20:46.968Z,50.60
2018-07-27T04:22:42.449Z,51.37
2018-07-27T04:23:42.935Z,50.98
2018-07-27T04:25:38.349Z,50.89
2018-07-27T04:26:38.367Z,51.28
2018-07-27T04:28:34.847Z,51.08
2018-07-27T04:29:34.350Z,51.08
2018-07-27T04:31:29.808Z,51.37
2018-07-27T04:32:28.809Z,51.28
2018-07-27T04:34:23.267Z,51.08
2018-07-27T04:35:23.782Z,51.28
2018-07-27T04:37:19.277Z,50.70
2018-07-27T04:38:19.244Z,51.28
2018-07-27T04:40:15.239Z,51.18
2018-07-27T04:41:15.235Z,51.18
2018-07-27T04:43:10.700Z,50.31
2018-07-27T04:44:10.204Z,50.89
2018-07-27T04:46:03.181Z,50.50
2018-07-27T04:47:03.168Z,50.40
2018-07-27T04:48:57.108Z,50.31
2018-07-27T04:49:56.604Z,50.04
2018-07-27T04:51:52.568Z,49.85
2018-07-27T04:52:52.567Z,50.21
2018-07-27T04:54:49.055Z,49.27
2018-07-27T04:55:48.560Z,49.37
2018-07-27T04:57:42.042Z,48.03
2018-07-27T04:58:42.034Z,47.47
2018-07-27T05:00:36.503Z,46.92
2018-07-27T05:01:36.493Z,46.72
2018-07-27T05:03:33.465Z,45.87
2018-07-27T05:04:32.479Z,45.68
2018-07-27T05:06:29.928Z,45.12
2018-07-27T05:07:28.932Z,44.44
2018-07-27T05:09:22.882Z,43.76
2018-07-27T05:10:22.885Z,44.07
2018-07-27T05:12:18.345Z,44.07
2018-07-27T05:13:18.354Z,43.98
2018-07-27T05:15:13.346Z,44.17
2018-07-27T05:16:13.863Z,43.01
2018-07-27T05:18:07.816Z,42.93
2018-07-27T05:19:07.788Z,42.83
2018-07-27T05:21:02.257Z,42.44
2018-07-27T05:22:02.268Z,42.54
2018-07-27T05:23:56.704Z,42.05
2018-07-27T05:24:56.706Z,42.25
2018-07-27T05:26:54.167Z,42.36
2018-07-27T05:27:52.763Z,42.18
2018-07-27T05:29:48.719Z,42.15
2018-07-27T05:30:49.712Z,42.25
2018-07-27T05:32:46.181Z,42.05
2018-07-27T05:33:44.698Z,42.25
2018-07-27T05:35:39.128Z,42.35
2018-07-27T05:36:39.130Z,41.98
2018-07-27T05:38:33.585Z,41.59
2018-07-27T05:39:34.583Z,41.78
2018-07-27T05:41:28.065Z,41.59
2018-07-27T05:42:28.068Z,41.49
2018-07-27T05:44:22.557Z,41.20
2018-07-27T05:45:23.048Z,41.39
2018-07-27T05:47:16.073Z,41.30
2018-07-27T05:48:15.988Z,41.30
2018-07-27T05:50:11.985Z,41.39
2018-07-27T05:51:11.974Z,41.01
2018-07-27T05:53:05.932Z,40.83
2018-07-27T05:54:05.438Z,40.73
2018-07-27T05:56:01.428Z,40.54
2018-07-27T05:57:02.417Z,40.06
2018-07-27T05:58:57.397Z,39.69
2018-07-27T05:59:57.414Z,39.59
2018-07-27T06:01:53.389Z,39.69
2018-07-27T06:02:53.881Z,39.29
2018-07-27T06:04:47.838Z,39.31
2018-07-27T06:05:47.846Z,39.69
2018-07-27T06:07:44.814Z,39.41
2018-07-27T06:08:43.857Z,39.31
2018-07-27T06:10:38.778Z,39.12
2018-07-27T06:11:38.295Z,39.12
2018-07-27T06:13:34.291Z,39.22
2018-07-27T06:14:35.277Z,39.03
2018-07-27T06:16:28.762Z,39.22
2018-07-27T06:17:28.732Z,39.22
2018-07-27T06:19:34.229Z,39.31
2018-07-27T06:20:34.235Z,39.22
2018-07-27T06:22:29.180Z,39.39
2018-07-27T06:23:28.686Z,39.51
2018-07-27T06:25:24.668Z,39.31
2018-07-27T06:26:24.636Z,39.31
2018-07-27T06:28:20.630Z,39.70
2018-07-27T06:30:35.075Z,39.20
2018-07-27T06:31:35.106Z,39.29
2018-07-27T06:33:29.586Z,40.08
2018-07-27T06:34:29.567Z,39.59
2018-07-27T06:36:26.044Z,39.78
2018-07-27T06:37:26.538Z,39.51
2018-07-27T06:39:21.529Z,39.70
2018-07-27T06:41:38.503Z,39.41
2018-07-27T06:42:37.507Z,39.70
2018-07-27T06:44:33.511Z,39.61
2018-07-27T06:47:29.486Z,39.41
2018-07-27T06:48:29.461Z,39.22
2018-07-27T06:50:25.454Z,39.61
2018-07-27T06:51:25.453Z,39.90
2018-07-27T06:53:21.935Z,40.00
2018-07-27T06:54:22.406Z,39.90
2018-07-27T06:56:17.901Z,40.09
2018-07-27T06:57:17.403Z,40.00
2018-07-27T06:59:14.868Z,39.90
2018-07-27T07:00:11.870Z,40.00
2018-07-27T07:02:09.849Z,40.48
2018-07-27T07:03:07.857Z,40.78
2018-07-27T07:05:03.794Z,40.56
2018-07-27T07:06:03.804Z,40.27
2018-07-27T07:07:59.755Z,40.88
2018-07-27T07:08:59.799Z,40.29
2018-07-27T07:10:56.723Z,40.00
2018-07-27T07:11:55.727Z,40.29
2018-07-27T07:13:52.203Z,40.39
2018-07-27T07:14:51.721Z,40.97
2018-07-27T07:16:47.702Z,40.88
2018-07-27T07:17:47.690Z,40.88
2018-07-27T07:19:44.192Z,40.39
2018-07-27T07:20:44.660Z,40.50
2018-07-27T07:22:39.653Z,39.92
2018-07-27T07:23:39.661Z,39.92
2018-07-27T07:25:36.751Z,39.43
2018-07-27T07:26:36.146Z,39.26
2018-07-27T07:28:30.590Z,39.16
2018-07-27T07:29:30.107Z,39.36
2018-07-27T07:31:26.075Z,39.36
2018-07-27T07:32:26.586Z,39.36
2018-07-27T07:34:21.547Z,39.28
2018-07-27T07:35:20.556Z,39.28
2018-07-27T07:37:16.506Z,39.28
2018-07-27T07:38:16.504Z,39.47
2018-07-27T07:40:12.994Z,39.47
2018-07-27T07:41:12.975Z,39.28
2018-07-27T07:43:08.432Z,39.37
2018-07-27T07:44:07.461Z,38.79
2018-07-27T07:46:03.443Z,39.39
2018-07-27T07:47:02.931Z,39.59
2018-07-27T07:48:58.898Z,38.32
2018-07-27T07:49:58.909Z,38.61
2018-07-27T07:51:54.895Z,38.32
2018-07-27T07:52:54.885Z,38.61
2018-07-27T07:54:50.798Z,38.61
2018-07-27T07:55:50.831Z,38.89
2018-07-27T07:57:45.278Z,39.39
2018-07-27T07:58:45.303Z,39.18
2018-07-27T08:00:42.247Z,39.39
2018-07-27T08:01:41.260Z,39.20
2018-07-27T08:03:37.236Z,38.90
2018-07-27T08:04:37.241Z,38.81
2018-07-27T08:06:31.214Z,38.71
2018-07-27T08:07:30.729Z,38.71
2018-07-27T08:09:26.732Z,39.59
2018-07-27T08:10:26.714Z,39.20
2018-07-27T08:12:20.191Z,39.41
2018-07-27T08:13:20.184Z,39.22
2018-07-27T08:15:16.649Z,38.53
2018-07-27T08:16:16.135Z,38.43
2018-07-27T08:18:11.094Z,38.24
2018-07-27T08:19:10.589Z,38.34
2018-07-27T08:21:08.556Z,38.65
2018-07-27T08:22:06.557Z,38.16
2018-07-27T08:24:02.554Z,38.18
2018-07-27T08:25:02.541Z,37.79
2018-07-27T08:27:00.012Z,37.11
2018-07-27T08:27:58.514Z,37.70
2018-07-27T08:29:52.973Z,37.40
2018-07-27T08:30:52.986Z,37.11
2018-07-27T08:32:46.454Z,37.62
2018-07-27T08:33:47.445Z,37.22
2018-07-27T08:35:42.404Z,37.12
2018-07-27T08:36:42.416Z,37.52
2018-07-27T08:38:35.891Z,37.14
2018-07-27T08:39:35.900Z,37.24
2018-07-27T08:41:31.386Z,37.04
2018-07-27T08:42:30.361Z,36.26
2018-07-27T08:44:23.847Z,36.85
2018-07-27T08:45:24.837Z,37.14
2018-07-27T08:47:18.393Z,36.85
2018-07-27T08:48:18.324Z,36.77
2018-07-27T08:50:14.272Z,35.79
2018-07-27T08:51:14.286Z,35.99
2018-07-27T08:53:10.268Z,35.71
2018-07-27T08:54:10.249Z,35.52
2018-07-27T08:56:04.737Z,35.32
2018-07-27T08:57:04.736Z,35.44
2018-07-27T08:59:01.720Z,35.22
2018-07-27T09:00:01.725Z,35.44
2018-07-27T09:01:57.222Z,35.04
2018-07-27T09:02:58.196Z,34.65
2018-07-27T09:04:52.610Z,34.36
2018-07-27T09:05:53.174Z,34.26
2018-07-27T09:07:50.536Z,32.89
2018-07-27T09:08:48.624Z,33.09
2018-07-27T09:10:44.626Z,32.30
2018-07-27T09:11:45.594Z,32.60
2018-07-27T09:13:38.083Z,33.18
2018-07-27T09:14:38.079Z,33.38
2018-07-27T09:16:33.555Z,32.99
2018-07-27T09:17:33.574Z,32.99
2018-07-27T09:19:28.546Z,33.39
2018-07-27T09:20:28.537Z,33.18
2018-07-27T09:22:24.524Z,33.10
2018-07-27T09:23:24.524Z,32.90
2018-07-27T09:25:20.849Z,32.34
2018-07-27T09:26:20.991Z,32.14
2018-07-27T09:28:15.443Z,31.07
2018-07-27T09:29:15.467Z,30.98
2018-07-27T09:31:10.928Z,30.57
2018-07-27T09:32:09.413Z,30.96
2018-07-27T09:34:05.974Z,30.96
2018-07-27T09:35:05.417Z,31.07
2018-07-27T09:37:00.367Z,30.98
2018-07-27T09:37:59.865Z,30.68
2018-07-27T09:39:55.351Z,30.29
2018-07-27T09:40:54.370Z,30.58
2018-07-27T09:42:50.324Z,30.60
2018-07-27T09:43:50.816Z,30.40
2018-07-27T09:45:46.807Z,30.01
2018-07-27T09:46:46.271Z,29.62
2018-07-27T09:48:43.731Z,29.13
2018-07-27T09:49:42.262Z,29.52
2018-07-27T09:51:36.753Z,29.13
2018-07-27T09:52:36.720Z,29.03
2018-07-27T09:54:33.705Z,27.95
2018-07-27T09:55:32.700Z,27.85
2018-07-27T09:57:29.217Z,28.05
2018-07-27T09:58:28.698Z,28.25
2018-07-27T10:00:24.640Z,28.05
2018-07-27T10:01:24.656Z,28.05
2018-07-27T10:03:20.633Z,28.05
2018-07-27T10:04:20.626Z,28.34
2018-07-27T10:06:16.651Z,27.08
2018-07-27T10:07:16.656Z,26.98
2018-07-27T10:09:12.658Z,26.79
2018-07-27T10:10:12.642Z,26.29
2018-07-27T10:12:08.624Z,25.90
2018-07-27T10:13:08.602Z,25.51
2018-07-27T10:15:04.580Z,25.71
2018-07-27T10:16:04.544Z,26.20
2018-07-27T10:18:00.501Z,26.79
2018-07-27T10:19:00.518Z,26.78
2018-07-27T10:20:57.505Z,26.78
2018-07-27T10:21:56.515Z,26.78
2018-07-27T10:23:52.460Z,26.79
2018-07-27T10:24:52.542Z,26.29
2018-07-27T10:26:48.476Z,26.31
2018-07-27T10:29:04.957Z,25.73
2018-07-27T10:30:04.457Z,26.23
2018-07-27T10:31:58.955Z,25.63
2018-07-27T10:32:58.930Z,25.54
2018-07-27T10:34:54.922Z,25.15
2018-07-27T10:35:55.411Z,25.24
2018-07-27T10:37:49.407Z,24.95
2018-07-27T10:38:49.355Z,25.63
2018-07-27T10:40:45.336Z,25.83
2018-07-27T10:41:46.254Z,25.73
2018-07-27T10:43:41.367Z,25.93
2018-07-27T10:44:42.318Z,25.93
2018-07-27T10:46:38.795Z,26.23
2018-07-27T10:47:38.284Z,26.12
2018-07-27T10:49:31.795Z,26.12
2018-07-27T10:50:31.806Z,26.11
2018-07-27T10:52:27.790Z,26.51
2018-07-27T10:53:27.798Z,26.23
2018-07-27T10:55:21.283Z,25.83
2018-07-27T10:56:22.779Z,26.23
2018-07-27T10:58:17.241Z,26.23
2018-07-27T10:59:17.254Z,25.73
2018-07-27T11:01:11.732Z,25.63
2018-07-27T11:02:11.721Z,25.04
2018-07-27T11:04:07.705Z,24.85
2018-07-27T11:05:07.731Z,24.64
2018-07-27T11:07:02.697Z,24.64
2018-07-27T11:08:03.207Z,24.75
2018-07-27T11:09:58.197Z,24.93
2018-07-27T11:10:58.179Z,24.35
2018-07-27T11:12:54.175Z,23.75
2018-07-27T11:13:55.168Z,24.44
2018-07-27T11:15:47.595Z,24.44
2018-07-27T11:16:47.625Z,24.84
2018-07-27T11:18:44.087Z,24.35
2018-07-27T11:19:43.589Z,24.15
2018-07-27T11:21:39.575Z,23.27
2018-07-27T11:22:39.586Z,23.17
2018-07-27T11:24:36.576Z,22.88
2018-07-27T11:25:37.586Z,22.20
2018-07-27T11:27:31.546Z,22.30
2018-07-27T11:28:31.066Z,22.00
2018-07-27T11:30:28.035Z,22.20
2018-07-27T11:31:27.045Z,21.90
2018-07-27T11:33:25.542Z,21.80
2018-07-27T11:34:25.181Z,22.00
2018-07-27T11:36:21.693Z,22.20
2018-07-27T11:37:21.210Z,22.20
2018-07-27T11:39:15.168Z,21.81
2018-07-27T11:40:14.690Z,21.91
2018-07-27T11:42:09.175Z,22.12
2018-07-27T11:43:09.180Z,21.63
2018-07-27T11:45:03.718Z,21.43
2018-07-27T11:46:03.624Z,20.54
2018-07-27T11:47:59.628Z,20.54
2018-07-27T11:48:59.617Z,21.04
2018-07-27T11:50:55.096Z,21.14
2018-07-27T11:51:54.095Z,20.54
2018-07-27T11:53:48.566Z,21.04
2018-07-27T11:54:48.562Z,21.04
2018-07-27T11:56:43.071Z,20.75
2018-07-27T11:57:42.065Z,20.84
2018-07-27T11:59:38.541Z,20.75
2018-07-27T12:00:38.060Z,21.33
2018-07-27T12:02:35.033Z,21.53
2018-07-27T12:03:34.089Z,19.75
2018-07-27T12:05:30.021Z,20.82
2018-07-27T12:06:28.512Z,21.31
2018-07-27T12:08:24.482Z,22.70
2018-07-27T12:09:24.477Z,22.01
2018-07-27T12:11:19.455Z,22.22
2018-07-27T12:12:18.974Z,22.02
2018-07-27T12:14:13.656Z,21.92
2018-07-27T12:15:12.782Z,21.63
2018-07-27T12:17:06.964Z,21.92
2018-07-27T12:18:06.961Z,21.73
2018-07-27T12:20:01.944Z,21.72
2018-07-27T12:21:01.537Z,22.01
2018-07-27T12:22:57.482Z,22.01
2018-07-27T12:23:57.446Z,22.22
2018-07-27T12:25:52.396Z,22.01
2018-07-27T12:26:54.865Z,22.12
2018-07-27T12:28:46.887Z,21.72
2018-07-27T12:29:46.899Z,22.02
2018-07-27T12:31:41.385Z,21.83
2018-07-27T12:32:41.382Z,21.73
2018-07-27T12:34:35.853Z,21.43
2018-07-27T12:35:36.853Z,21.73
2018-07-27T12:37:30.841Z,21.53
2018-07-27T12:38:31.332Z,21.25
2018-07-27T12:40:25.824Z,20.95
2018-07-27T12:41:24.851Z,20.26
2018-07-27T12:43:19.339Z,19.67
2018-07-27T12:44:19.360Z,19.57
2018-07-27T12:46:13.828Z,20.65
2018-07-27T12:47:14.802Z,20.65
2018-07-27T12:49:07.290Z,19.78
2018-07-27T12:50:08.308Z,18.30
2018-07-27T12:52:02.776Z,19.38
2018-07-27T12:53:00.795Z,19.27
2018-07-27T12:54:55.764Z,19.68
2018-07-27T12:55:55.261Z,19.88
2018-07-27T12:57:51.222Z,20.67
2018-07-27T12:58:51.212Z,20.86
2018-07-27T13:00:45.732Z,19.48
2018-07-27T13:01:45.710Z,19.38
2018-07-27T13:03:44.199Z,19.87
2018-07-27T13:04:41.685Z,19.67
2018-07-27T13:06:36.161Z,20.06
2018-07-27T13:07:36.176Z,20.36
2018-07-27T13:09:32.124Z,19.86
2018-07-27T13:10:32.148Z,19.86
2018-07-27T13:12:27.121Z,20.64
2018-07-27T13:13:26.618Z,20.75
2018-07-27T13:15:22.603Z,20.56
2018-07-27T13:16:23.136Z,20.75
2018-07-27T13:18:17.065Z,20.56
2018-07-27T13:19:17.059Z,20.85
2018-07-27T13:21:13.078Z,20.85
2018-07-27T13:22:13.121Z,20.85
2018-07-27T13:24:09.039Z,20.37
2018-07-27T13:25:09.094Z,20.07
2018-07-27T13:27:03.524Z,19.78
2018-07-27T13:28:02.530Z,19.77
2018-07-27T13:29:56.003Z,19.68
2018-07-27T13:30:56.033Z,19.18
2018-07-27T13:32:51.987Z,19.67
2018-07-27T13:33:52.996Z,19.18
2018-07-27T13:35:46.978Z,18.49
2018-07-27T13:36:46.967Z,18.19
2018-07-27T13:38:39.980Z,18.59
2018-07-27T13:39:40.983Z,18.49
2018-07-27T13:41:35.921Z,19.27
2018-07-27T13:42:35.932Z,19.48
2018-07-27T13:44:32.903Z,20.17
2018-07-27T13:45:31.928Z,19.88
2018-07-27T13:47:29.892Z,20.67
2018-07-27T13:48:27.925Z,20.78
2018-07-27T13:50:22.895Z,20.48
2018-07-27T13:51:22.404Z,20.57
2018-07-27T13:53:19.369Z,19.98
2018-07-27T13:54:19.397Z,19.58
2018-07-27T13:56:14.352Z,19.57
2018-07-27T13:57:14.391Z,19.18
2018-07-27T13:59:10.353Z,19.87
2018-07-27T14:00:10.359Z,19.08
2018-07-27T14:02:06.324Z,19.38
2018-07-27T14:03:07.334Z,19.08
2018-07-27T14:05:02.330Z,18.88
2018-07-27T14:06:02.305Z,19.07
2018-07-27T14:07:58.779Z,19.56
2018-07-27T14:08:58.279Z,19.07
2018-07-27T14:10:56.758Z,18.59
2018-07-27T14:11:56.283Z,18.39
2018-07-27T14:13:52.277Z,18.69
2018-07-27T14:14:53.250Z,18.69
2018-07-27T14:16:49.258Z,18.49
2018-07-27T14:17:48.281Z,18.49
2018-07-27T14:19:42.756Z,18.59
2018-07-27T14:20:42.779Z,18.29
2018-07-27T14:22:39.724Z,18.98
2018-07-27T14:23:38.763Z,19.18
2018-07-27T14:25:32.243Z,19.29
2018-07-27T14:26:32.196Z,18.50
2018-07-27T14:28:28.669Z,18.40
2018-07-27T14:29:28.188Z,18.30
2018-07-27T14:31:24.209Z,18.12
2018-07-27T14:32:24.198Z,18.61
2018-07-27T14:34:20.694Z,17.43
2018-07-27T14:35:20.184Z,16.74
2018-07-27T14:37:16.132Z,16.83
2018-07-27T14:38:16.152Z,17.82
2018-07-27T14:40:12.155Z,18.11
2018-07-27T14:41:12.149Z,18.51
2018-07-27T14:43:06.632Z,18.12
2018-07-27T14:44:06.611Z,18.12
2018-07-27T14:46:04.616Z,18.42
2018-07-27T14:47:02.598Z,18.32
2018-07-27T14:48:58.629Z,18.81
2018-07-27T14:49:58.589Z,18.42
2018-07-27T14:51:53.089Z,18.62
2018-07-27T14:52:53.135Z,18.42
2018-07-27T14:54:49.097Z,18.52
2018-07-27T14:55:50.061Z,18.52
2018-07-27T14:57:43.579Z,19.31
2018-07-27T14:58:44.619Z,18.61
2018-07-27T15:00:39.551Z,19.10
2018-07-27T15:01:39.556Z,18.80
2018-07-27T15:03:35.528Z,19.09
2018-07-27T15:04:35.526Z,19.29
2018-07-27T15:06:31.541Z,19.58
2018-07-27T15:07:32.519Z,19.69
2018-07-27T15:09:27.516Z,19.40
2018-07-27T15:10:28.499Z,18.90
2018-07-27T15:12:22.987Z,19.40
2018-07-27T15:13:22.029Z,18.90
2018-07-27T15:15:15.537Z,18.51
2018-07-27T15:16:15.533Z,18.62
2018-07-27T15:18:09.969Z,18.32
2018-07-27T15:19:09.948Z,18.81
2018-07-27T15:21:05.943Z,18.71
2018-07-27T15:22:06.935Z,18.61
2018-07-27T15:24:01.888Z,18.52
2018-07-27T15:25:02.914Z,18.42
2018-07-27T15:26:59.896Z,18.62
2018-07-27T15:28:00.884Z,18.52
2018-07-27T15:29:54.872Z,18.51
2018-07-27T15:30:55.394Z,18.62
2018-07-27T15:32:49.376Z,17.93
2018-07-27T15:33:48.877Z,18.32
2018-07-27T15:35:46.856Z,17.94
2018-07-27T15:36:45.787Z,17.83
2018-07-27T15:38:40.801Z,17.94
2018-07-27T15:39:40.801Z,17.44
2018-07-27T15:41:35.304Z,17.14
2018-07-27T15:42:37.290Z,18.02
2018-07-27T15:44:31.303Z,17.93
2018-07-27T15:45:31.280Z,17.82
2018-07-27T15:47:27.275Z,18.02
2018-07-27T15:48:27.285Z,18.31
2018-07-27T15:50:24.251Z,18.21
2018-07-27T15:51:23.270Z,18.31
2018-07-27T15:53:19.244Z,17.93
2018-07-27T15:54:20.230Z,17.93
2018-07-27T15:56:13.721Z,18.21
2018-07-27T15:57:13.716Z,18.51
2018-07-27T15:59:08.215Z,18.12
2018-07-27T16:00:08.220Z,18.23
2018-07-27T16:02:02.693Z,18.02
2018-07-27T16:03:02.694Z,18.12
2018-07-27T16:04:57.193Z,18.32
2018-07-27T16:05:57.142Z,18.23
2018-07-27T16:07:51.618Z,18.32
2018-07-27T16:08:50.629Z,18.21
2018-07-27T16:10:54.612Z,18.51
2018-07-27T16:11:55.598Z,18.71
2018-07-27T16:13:51.114Z,18.41
2018-07-27T16:14:50.615Z,18.61
2018-07-27T16:16:46.604Z,18.61
2018-07-27T16:17:46.623Z,18.41
2018-07-27T16:19:40.094Z,18.41
2018-07-27T16:20:40.091Z,18.51
2018-07-27T16:22:36.575Z,19.30
2018-07-27T16:23:35.584Z,19.10
2018-07-27T16:25:32.062Z,19.20
2018-07-27T16:26:31.054Z,19.10
2018-07-27T16:28:28.527Z,18.90
2018-07-27T16:29:30.520Z,18.31
2018-07-27T16:31:24.525Z,19.30
2018-07-27T16:32:25.511Z,18.41
2018-07-27T16:34:20.504Z,19.30
2018-07-27T16:35:21.508Z,18.90
2018-07-27T16:37:14.967Z,18.51
2018-07-27T16:38:14.994Z,18.41
2018-07-27T16:40:10.965Z,18.90
2018-07-27T16:41:10.981Z,19.00
2018-07-27T16:43:07.942Z,18.90
2018-07-27T16:44:06.960Z,18.61
2018-07-27T16:46:02.437Z,18.51
2018-07-27T16:47:02.441Z,18.31
2018-07-27T16:48:59.407Z,18.80
2018-07-27T16:49:57.422Z,18.51
2018-07-27T16:51:50.912Z,18.42
2018-07-27T16:52:50.962Z,18.12
2018-07-27T16:54:46.392Z,18.32
2018-07-27T16:55:45.429Z,18.73
2018-07-27T16:57:40.388Z,18.63
2018-07-27T16:58:40.406Z,18.23
2018-07-27T17:00:34.440Z,18.14
2018-07-27T17:01:35.377Z,18.34
2018-07-27T17:03:30.876Z,17.36
2018-07-27T17:04:30.402Z,17.26
2018-07-27T17:06:24.873Z,17.07
2018-07-27T17:07:23.877Z,17.45
2018-07-27T17:09:20.388Z,17.65
2018-07-27T17:10:19.858Z,18.04
2018-07-27T17:12:15.386Z,17.75
2018-07-27T17:13:14.367Z,17.66
2018-07-27T17:15:09.830Z,17.94
2018-07-27T17:16:08.831Z,17.85
2018-07-27T17:18:02.800Z,17.94
2018-07-27T17:19:02.311Z,18.33
2018-07-27T17:20:56.806Z,17.83
2018-07-27T17:21:56.808Z,18.23
2018-07-27T17:23:53.776Z,18.41
2018-07-27T17:24:53.774Z,18.31
2018-07-27T17:26:47.306Z,18.30
2018-07-27T17:27:47.303Z,18.60
2018-07-27T17:29:43.297Z,19.38
2018-07-27T17:30:43.303Z,19.38
2018-07-27T17:32:39.287Z,19.19
2018-07-27T17:33:39.311Z,19.19
2018-07-27T17:35:35.233Z,19.29
2018-07-27T17:36:35.758Z,19.38
2018-07-27T17:38:31.196Z,19.48
2018-07-27T17:39:31.220Z,19.27
2018-07-27T17:41:24.713Z,19.27
2018-07-27T17:42:24.716Z,18.90
2018-07-27T17:44:20.674Z,19.08
2018-07-27T17:45:20.695Z,18.88
2018-07-27T17:47:14.735Z,18.98
2018-07-27T17:48:14.243Z,19.08
2018-07-27T17:50:08.199Z,19.08
2018-07-27T17:51:07.708Z,19.18
2018-07-27T17:53:04.694Z,19.08
2018-07-27T17:54:03.720Z,19.38
2018-07-27T17:56:00.703Z,18.88
2018-07-27T17:56:59.680Z,18.29
2018-07-27T17:58:56.164Z,18.29
2018-07-27T17:59:56.157Z,19.27
2018-07-27T18:01:52.153Z,19.18
2018-07-27T18:02:52.148Z,18.98
2018-07-27T18:04:47.136Z,19.76
2018-07-27T18:05:46.669Z,18.98
2018-07-27T18:07:43.669Z,19.17
2018-07-27T18:08:42.632Z,20.75
2018-07-27T18:10:37.136Z,19.66
2018-07-27T18:11:37.127Z,20.45
2018-07-27T18:13:32.106Z,19.46
2018-07-27T18:14:33.541Z,19.08
2018-07-27T18:16:26.103Z,19.08
2018-07-27T18:17:26.099Z,19.08
2018-07-27T18:19:23.530Z,19.38
2018-07-27T18:20:22.084Z,19.76
2018-07-27T18:22:21.991Z,19.27
2018-07-27T18:24:35.956Z,19.95
2018-07-27T18:25:33.530Z,19.95
2018-07-27T18:27:28.526Z,19.75
2018-07-27T18:28:28.531Z,19.56
2018-07-27T18:30:24.535Z,19.65
2018-07-27T18:31:24.505Z,20.04
2018-07-27T18:33:21.997Z,20.72
2018-07-27T18:34:20.490Z,20.83
2018-07-27T18:36:16.476Z,21.02
2018-07-27T18:37:17.886Z,21.41
2018-07-27T18:39:13.459Z,21.31
2018-07-27T18:40:12.461Z,21.51
2018-07-27T18:42:05.954Z,21.01
2018-07-27T18:43:05.949Z,21.40
2018-07-27T18:45:01.886Z,21.59
2018-07-27T18:46:01.891Z,21.78
2018-07-27T18:47:58.362Z,22.17
2018-07-27T18:48:57.866Z,21.78
2018-07-27T18:50:53.866Z,21.19
2018-07-27T18:51:53.845Z,21.67